Weather at Lilongwe International Airport

Public forecast

Using degrees Celsius for public forecast. Weather courtesy of forecast.io.

Current aviation weather report (METAR) for Lilongwe International Airport

Retrieved 2020/09/18 08:00 UTC (22 minutes ago):

FWKI 180800Z 07012KT 9999 SCT025 25/12 Q1023 NOSIG

Aviation forecast (TAF) for Lilongwe International Airport

Retrieved 2020/09/18 06:00 UTC (2 hours ago):

TAF FWKI 180430Z 1806/1912 09005KT CAVOK BECMG 1809/1811 08010G20KT 9999 FEW030 FM181200 09010KT CAVOK